Time,TemperatureF,DewpointF,PressureIn,WindDirection,WindDirectionDegrees,WindSpeedMPH,WindSpeedGustMPH,Humidity,HourlyPrecipIn,Conditions,Clouds,dailyrainin,SolarRadiationWatts/m^2,SoftwareType,DateUTC
2013-04-26 00:00:00,37.6,23.4,30.24,South,176,2.0,0.0,56,0.00,,,0.00,1,WeatherHawk,2013-04-26 05:00:00,
2013-04-26 00:06:00,38.5,23.7,30.24,South,174,4.0,0.0,55,0.00,,,0.00,0,WeatherHawk,2013-04-26 05:06:00,
2013-04-26 00:11:00,39.5,22.4,30.24,SSE,152,1.0,0.0,50,0.00,,,0.00,0,WeatherHawk,2013-04-26 05:11:00,
2013-04-26 00:16:00,36.7,21.7,30.25,SSW,196,3.0,0.0,54,0.00,,,0.00,1,WeatherHawk,2013-04-26 05:16:00,
2013-04-26 00:21:00,39.3,24.1,30.25,SSE,166,4.0,0.0,54,0.00,,,0.00,1,WeatherHawk,2013-04-26 05:21:00,
2013-04-26 00:26:00,39.5,22.9,30.24,SSE,165,4.0,0.0,51,0.00,,,0.00,0,WeatherHawk,2013-04-26 05:26:00,
2013-04-26 00:31:00,38.5,22.0,30.24,SE,137,3.0,0.0,51,0.00,,,0.00,0,WeatherHawk,2013-04-26 05:31:00,
2013-04-26 00:37:00,38.1,21.6,30.24,SSE,150,2.0,0.0,51,0.00,,,0.00,0,WeatherHawk,2013-04-26 05:37:00,
2013-04-26 00:42:00,38.4,22.4,30.24,SSE,156,4.0,0.0,52,0.00,,,0.00,0,WeatherHawk,2013-04-26 05:42:00,
2013-04-26 00:47:00,38.7,22.2,30.24,SSE,148,4.0,0.0,51,0.00,,,0.00,0,WeatherHawk,2013-04-26 05:47:00,
2013-04-26 00:52:00,38.1,21.6,30.24,SSE,154,3.0,0.0,51,0.00,,,0.00,0,WeatherHawk,2013-04-26 05:52:00,
2013-04-26 00:58:00,37.9,22.3,30.25,SSE,156,5.0,0.0,53,0.00,,,0.00,0,WeatherHawk,2013-04-26 05:58:00,
2013-04-26 01:04:00,36.9,22.3,30.24,SE,133,4.0,0.0,55,0.00,,,0.00,0,WeatherHawk,2013-04-26 06:04:00,
2013-04-26 01:09:00,37.4,23.2,30.24,SSE,153,6.0,0.0,56,0.00,,,0.00,0,WeatherHawk,2013-04-26 06:09:00,
2013-04-26 01:14:00,37.4,22.3,30.23,SSE,152,0.0,0.0,54,0.00,,,0.00,0,WeatherHawk,2013-04-26 06:14:00,
2013-04-26 01:19:00,37.1,22.0,30.24,South,170,5.0,0.0,54,0.00,,,0.00,0,WeatherHawk,2013-04-26 06:19:00,
2013-04-26 01:24:00,39.9,22.8,30.23,SSE,158,6.0,0.0,50,0.00,,,0.00,1,WeatherHawk,2013-04-26 06:24:00,
2013-04-26 01:29:00,39.3,22.3,30.23,SSE,154,4.0,0.0,50,0.00,,,0.00,1,WeatherHawk,2013-04-26 06:29:00,
2013-04-26 01:35:00,38.7,21.6,30.23,SSE,165,4.0,0.0,50,0.00,,,0.00,0,WeatherHawk,2013-04-26 06:35:00,
2013-04-26 01:40:00,39.7,22.1,30.23,SSE,166,6.0,0.0,49,0.00,,,0.00,0,WeatherHawk,2013-04-26 06:40:00,
2013-04-26 01:45:00,38.9,21.8,30.23,SSE,157,3.0,0.0,50,0.00,,,0.00,0,WeatherHawk,2013-04-26 06:45:00,
2013-04-26 01:50:00,39.0,21.5,30.23,SSE,165,5.0,0.0,49,0.00,,,0.00,0,WeatherHawk,2013-04-26 06:50:00,
2013-04-26 01:55:00,39.8,21.7,30.23,SSE,151,7.0,0.0,48,0.00,,,0.00,0,WeatherHawk,2013-04-26 06:55:00,
2013-04-26 02:00:00,39.6,21.5,30.22,SSE,154,5.0,0.0,48,0.00,,,0.00,0,WeatherHawk,2013-04-26 07:00:00,
2013-04-26 02:05:00,39.0,21.0,30.23,SSE,164,4.0,0.0,48,0.00,,,0.00,0,WeatherHawk,2013-04-26 07:05:00,
2013-04-26 02:10:00,39.3,20.3,30.22,South,172,4.0,0.0,46,0.00,,,0.00,0,WeatherHawk,2013-04-26 07:10:00,
2013-04-26 02:16:00,38.1,19.6,30.22,South,179,4.0,0.0,47,0.00,,,0.00,0,WeatherHawk,2013-04-26 07:16:00,
2013-04-26 02:21:00,38.3,19.9,30.23,South,171,5.0,0.0,47,0.00,,,0.00,0,WeatherHawk,2013-04-26 07:21:00,
2013-04-26 02:26:00,39.3,20.3,30.22,SSE,163,6.0,0.0,46,0.00,,,0.00,0,WeatherHawk,2013-04-26 07:26:00,
2013-04-26 02:31:00,39.7,20.1,30.22,SSE,164,6.0,0.0,45,0.00,,,0.00,0,WeatherHawk,2013-04-26 07:31:00,
2013-04-26 02:37:00,39.1,19.6,30.22,South,171,3.0,0.0,45,0.00,,,0.00,0,WeatherHawk,2013-04-26 07:37:00,
2013-04-26 02:42:00,39.4,19.8,30.23,SSE,168,4.0,0.0,45,0.00,,,0.00,0,WeatherHawk,2013-04-26 07:42:00,
2013-04-26 02:47:00,39.1,20.1,30.22,SSE,159,5.0,0.0,46,0.00,,,0.00,0,WeatherHawk,2013-04-26 07:47:00,
2013-04-26 02:52:00,38.6,20.1,30.22,SSE,159,3.0,0.0,47,0.00,,,0.00,0,WeatherHawk,2013-04-26 07:52:00,
2013-04-26 02:58:00,38.1,20.1,30.23,South,176,3.0,0.0,48,0.00,,,0.00,0,WeatherHawk,2013-04-26 07:58:00,
2013-04-26 03:03:00,38.0,20.1,30.22,South,180,4.0,0.0,48,0.00,,,0.00,0,WeatherHawk,2013-04-26 08:03:00,
2013-04-26 03:08:00,38.5,20.5,30.22,South,176,5.0,0.0,48,0.00,,,0.00,0,WeatherHawk,2013-04-26 08:08:00,
2013-04-26 03:14:00,38.4,20.4,30.23,SSE,165,3.0,0.0,48,0.00,,,0.00,0,WeatherHawk,2013-04-26 08:14:00,
2013-04-26 03:19:00,38.1,20.1,30.23,South,170,4.0,0.0,48,0.00,,,0.00,1,WeatherHawk,2013-04-26 08:19:00,
2013-04-26 03:24:00,37.4,19.5,30.23,SSE,166,3.0,0.0,48,0.00,,,0.00,0,WeatherHawk,2013-04-26 08:24:00,
2013-04-26 03:29:00,37.2,19.8,30.23,South,188,4.0,0.0,49,0.00,,,0.00,0,WeatherHawk,2013-04-26 08:29:00,
2013-04-26 03:34:00,38.9,20.9,30.23,SSE,162,5.0,0.0,48,0.00,,,0.00,0,WeatherHawk,2013-04-26 08:34:00,
2013-04-26 03:39:00,39.3,20.8,30.24,SSE,162,4.0,0.0,47,0.00,,,0.00,1,WeatherHawk,2013-04-26 08:39:00,
2013-04-26 03:45:00,39.1,20.1,30.23,SSE,168,5.0,0.0,46,0.00,,,0.00,0,WeatherHawk,2013-04-26 08:45:00,
2013-04-26 03:50:00,38.7,19.7,30.23,South,171,5.0,0.0,46,0.00,,,0.00,0,WeatherHawk,2013-04-26 08:50:00,
2013-04-26 03:55:00,38.4,19.4,30.23,SSE,162,5.0,0.0,46,0.00,,,0.00,0,WeatherHawk,2013-04-26 08:55:00,
2013-04-26 04:00:00,39.2,19.1,30.23,SSE,160,6.0,0.0,44,0.00,,,0.00,0,WeatherHawk,2013-04-26 09:00:00,
2013-04-26 04:05:00,39.2,18.6,30.23,South,185,8.0,0.0,43,0.00,,,0.00,1,WeatherHawk,2013-04-26 09:05:00,
2013-04-26 04:10:00,39.5,18.9,30.22,South,169,5.0,0.0,43,0.00,,,0.00,0,WeatherHawk,2013-04-26 09:10:00,
2013-04-26 04:15:00,39.3,18.2,30.23,SSE,166,6.0,0.0,42,0.00,,,0.00,0,WeatherHawk,2013-04-26 09:15:00,
2013-04-26 04:21:00,39.6,19.0,30.22,South,177,8.0,0.0,43,0.00,,,0.00,0,WeatherHawk,2013-04-26 09:21:00,
2013-04-26 04:26:00,39.0,19.0,30.23,South,184,4.0,0.0,44,0.00,,,0.00,1,WeatherHawk,2013-04-26 09:26:00,
2013-04-26 04:31:00,38.3,18.8,30.22,South,173,5.0,0.0,45,0.00,,,0.00,0,WeatherHawk,2013-04-26 09:31:00,
2013-04-26 04:37:00,38.5,19.5,30.22,South,175,7.0,0.0,46,0.00,,,0.00,0,WeatherHawk,2013-04-26 09:37:00,
2013-04-26 04:42:00,38.3,19.9,30.22,SSE,167,7.0,0.0,47,0.00,,,0.00,0,WeatherHawk,2013-04-26 09:42:00,
2013-04-26 04:48:00,38.7,20.2,30.23,SSE,161,6.0,0.0,47,0.00,,,0.00,0,WeatherHawk,2013-04-26 09:48:00,
2013-04-26 04:53:00,38.3,19.9,30.22,South,177,6.0,0.0,47,0.00,,,0.00,0,WeatherHawk,2013-04-26 09:53:00,
2013-04-26 04:58:00,38.5,20.5,30.20,SE,136,7.0,0.0,48,0.00,,,0.00,1,WeatherHawk,2013-04-26 09:58:00,
2013-04-26 05:03:00,38.9,20.4,30.21,SSE,162,11.0,0.0,47,0.00,,,0.00,0,WeatherHawk,2013-04-26 10:03:00,
2013-04-26 05:08:00,38.0,19.6,30.21,South,170,6.0,0.0,47,0.00,,,0.00,0,WeatherHawk,2013-04-26 10:08:00,
2013-04-26 05:14:00,39.1,20.6,30.22,SSE,155,5.0,0.0,47,0.00,,,0.00,0,WeatherHawk,2013-04-26 10:14:00,
2013-04-26 05:19:00,38.6,20.1,30.21,SSE,166,5.0,0.0,47,0.00,,,0.00,0,WeatherHawk,2013-04-26 10:19:00,
2013-04-26 05:24:00,38.7,20.3,30.21,South,178,6.0,0.0,47,0.00,,,0.00,0,WeatherHawk,2013-04-26 10:24:00,
2013-04-26 05:29:00,38.8,20.8,30.21,SSE,163,6.0,0.0,48,0.00,,,0.00,0,WeatherHawk,2013-04-26 10:29:00,
2013-04-26 05:35:00,39.4,19.8,30.21,South,170,7.0,0.0,45,0.00,,,0.00,0,WeatherHawk,2013-04-26 10:35:00,
2013-04-26 05:41:00,39.2,20.1,30.21,South,175,6.0,0.0,46,0.00,,,0.00,0,WeatherHawk,2013-04-26 10:41:00,
2013-04-26 05:47:00,39.6,20.6,30.22,SW,225,7.0,0.0,46,0.00,,,0.00,1,WeatherHawk,2013-04-26 10:47:00,
2013-04-26 05:52:00,40.4,20.8,30.23,South,172,6.0,0.0,45,0.00,,,0.00,0,WeatherHawk,2013-04-26 10:52:00,
2013-04-26 05:57:00,40.3,20.1,30.22,South,185,5.0,0.0,44,0.00,,,0.00,1,WeatherHawk,2013-04-26 10:57:00,
2013-04-26 06:02:00,40.2,20.6,30.22,SSE,150,5.0,0.0,45,0.00,,,0.00,4,WeatherHawk,2013-04-26 11:02:00,
2013-04-26 06:08:00,40.2,20.6,30.23,SSE,167,4.0,0.0,45,0.00,,,0.00,9,WeatherHawk,2013-04-26 11:08:00,
2013-04-26 06:14:00,40.9,21.2,30.22,SSE,167,7.0,0.0,45,0.00,,,0.00,12,WeatherHawk,2013-04-26 11:14:00,
2013-04-26 06:20:00,41.7,21.4,30.22,South,172,7.0,0.0,44,0.00,,,0.00,17,WeatherHawk,2013-04-26 11:20:00,
2013-04-26 06:26:00,42.4,21.0,30.22,South,177,7.0,0.0,42,0.00,,,0.00,18,WeatherHawk,2013-04-26 11:26:00,
2013-04-26 06:31:00,42.6,21.1,30.22,South,170,7.0,0.0,42,0.00,,,0.00,21,WeatherHawk,2013-04-26 11:31:00,
2013-04-26 06:36:00,42.7,20.7,30.23,SSE,164,6.0,0.0,41,0.00,,,0.00,28,WeatherHawk,2013-04-26 11:36:00,
2013-04-26 06:42:00,42.8,20.7,30.22,South,171,12.0,0.0,41,0.00,,,0.00,33,WeatherHawk,2013-04-26 11:42:00,
2013-04-26 06:48:00,42.5,21.0,30.22,SSW,194,8.0,0.0,42,0.00,,,0.00,47,WeatherHawk,2013-04-26 11:48:00,
2013-04-26 06:53:00,42.4,21.0,30.22,SSW,203,9.0,0.0,42,0.00,,,0.00,58,WeatherHawk,2013-04-26 11:53:00,
2013-04-26 06:58:00,42.4,21.5,30.22,South,179,8.0,0.0,43,0.00,,,0.00,65,WeatherHawk,2013-04-26 11:58:00,
2013-04-26 07:03:00,42.4,21.5,30.22,South,171,7.0,0.0,43,0.00,,,0.00,64,WeatherHawk,2013-04-26 12:03:00,
2013-04-26 07:09:00,42.7,21.7,30.22,SSE,166,5.0,0.0,43,0.00,,,0.00,79,WeatherHawk,2013-04-26 12:09:00,
2013-04-26 07:15:00,42.5,22.2,30.22,South,178,7.0,0.0,44,0.00,,,0.00,64,WeatherHawk,2013-04-26 12:15:00,
2013-04-26 07:20:00,42.9,21.9,30.21,South,181,7.0,0.0,43,0.00,,,0.00,83,WeatherHawk,2013-04-26 12:20:00,
2013-04-26 07:25:00,43.2,22.7,30.21,South,180,6.0,0.0,44,0.00,,,0.00,105,WeatherHawk,2013-04-26 12:25:00,
2013-04-26 07:30:00,43.5,22.5,30.20,SSE,164,7.0,0.0,43,0.00,,,0.00,98,WeatherHawk,2013-04-26 12:30:00,
2013-04-26 07:35:00,44.4,23.3,30.21,South,186,8.0,0.0,43,0.00,,,0.00,108,WeatherHawk,2013-04-26 12:35:00,
2013-04-26 07:40:00,44.8,23.1,30.20,SSE,158,9.0,0.0,42,0.00,,,0.00,162,WeatherHawk,2013-04-26 12:40:00,
2013-04-26 07:45:00,46.3,24.5,30.21,SSW,205,7.0,0.0,42,0.00,,,0.00,178,WeatherHawk,2013-04-26 12:45:00,
2013-04-26 07:50:00,46.2,23.2,30.21,SSE,164,10.0,0.0,40,0.00,,,0.00,207,WeatherHawk,2013-04-26 12:50:00,
2013-04-26 07:55:00,47.0,22.7,30.21,South,178,7.0,0.0,38,0.00,,,0.00,257,WeatherHawk,2013-04-26 12:55:00,
2013-04-26 08:00:00,48.1,23.1,30.21,South,186,7.0,0.0,37,0.00,,,0.00,262,WeatherHawk,2013-04-26 13:00:00,
2013-04-26 08:05:00,49.1,24.6,30.21,South,179,5.0,0.0,38,0.00,,,0.00,289,WeatherHawk,2013-04-26 13:05:00,
2013-04-26 08:10:00,49.1,22.6,30.22,South,179,10.0,0.0,35,0.00,,,0.00,316,WeatherHawk,2013-04-26 13:10:00,
2013-04-26 08:15:00,50.6,24.6,30.21,South,183,7.0,0.0,36,0.00,,,0.00,349,WeatherHawk,2013-04-26 13:15:00,
2013-04-26 08:20:00,50.0,21.3,30.21,South,177,12.0,0.0,32,0.00,,,0.00,378,WeatherHawk,2013-04-26 13:20:00,
2013-04-26 08:25:00,49.3,21.4,30.20,SW,219,9.0,0.0,33,0.00,,,0.00,192,WeatherHawk,2013-04-26 13:25:00,
2013-04-26 08:30:00,50.8,22.7,30.20,SSW,197,8.0,0.0,33,0.00,,,0.00,310,WeatherHawk,2013-04-26 13:30:00,
2013-04-26 08:36:00,51.3,22.4,30.20,SE,146,10.0,0.0,32,0.00,,,0.00,448,WeatherHawk,2013-04-26 13:36:00,
2013-04-26 08:41:00,53.0,24.7,30.21,SSE,158,7.0,0.0,33,0.00,,,0.00,389,WeatherHawk,2013-04-26 13:41:00,
2013-04-26 08:46:00,52.1,21.6,30.21,SSE,160,9.0,0.0,30,0.00,,,0.00,335,WeatherHawk,2013-04-26 13:46:00,
2013-04-26 08:52:00,51.3,20.9,30.21,SSE,166,11.0,0.0,30,0.00,,,0.00,284,WeatherHawk,2013-04-26 13:52:00,
2013-04-26 08:57:00,52.2,23.2,30.21,South,190,7.0,0.0,32,0.00,,,0.00,247,WeatherHawk,2013-04-26 13:57:00,
2013-04-26 09:02:00,52.1,22.4,30.21,South,179,7.0,0.0,31,0.00,,,0.00,242,WeatherHawk,2013-04-26 14:02:00,
2013-04-26 09:07:00,52.2,20.9,30.21,SSE,157,10.0,0.0,29,0.00,,,0.00,216,WeatherHawk,2013-04-26 14:07:00,
2013-04-26 09:13:00,53.2,23.3,30.21,SSW,192,5.0,0.0,31,0.00,,,0.00,313,WeatherHawk,2013-04-26 14:13:00,
2013-04-26 09:19:00,52.7,21.4,30.20,South,177,13.0,0.0,29,0.00,,,0.00,231,WeatherHawk,2013-04-26 14:19:00,
2013-04-26 09:25:00,52.7,21.4,30.21,SSW,211,13.0,0.0,29,0.00,,,0.00,203,WeatherHawk,2013-04-26 14:25:00,
2013-04-26 09:31:00,53.2,23.3,30.19,SSW,195,9.0,0.0,31,0.00,,,0.00,237,WeatherHawk,2013-04-26 14:31:00,
2013-04-26 09:36:00,53.9,24.0,30.20,South,178,6.0,0.0,31,0.00,,,0.00,326,WeatherHawk,2013-04-26 14:36:00,
2013-04-26 09:42:00,56.2,25.2,30.19,South,186,8.0,0.0,30,0.00,,,0.00,489,WeatherHawk,2013-04-26 14:42:00,
2013-04-26 09:48:00,56.8,24.1,30.19,South,186,9.0,0.0,28,0.00,,,0.00,455,WeatherHawk,2013-04-26 14:48:00,
2013-04-26 09:53:00,57.2,24.4,30.19,SSE,156,8.0,0.0,28,0.00,,,0.00,501,WeatherHawk,2013-04-26 14:53:00,
2013-04-26 09:59:00,56.9,23.3,30.19,SSW,196,10.0,0.0,27,0.00,,,0.00,426,WeatherHawk,2013-04-26 14:59:00,
2013-04-26 10:05:00,57.0,24.2,30.20,SSE,167,8.0,0.0,28,0.00,,,0.00,422,WeatherHawk,2013-04-26 15:05:00,
2013-04-26 10:10:00,56.6,22.1,30.19,South,188,10.0,0.0,26,0.00,,,0.00,462,WeatherHawk,2013-04-26 15:10:00,
2013-04-26 10:15:00,58.9,25.0,30.19,South,190,11.0,0.0,27,0.00,,,0.00,633,WeatherHawk,2013-04-26 15:15:00,
2013-04-26 10:20:00,58.7,24.8,30.19,SSE,168,8.0,0.0,27,0.00,,,0.00,374,WeatherHawk,2013-04-26 15:20:00,
2013-04-26 10:25:00,57.3,22.7,30.20,South,183,8.0,0.0,26,0.00,,,0.00,294,WeatherHawk,2013-04-26 15:25:00,
2013-04-26 10:30:00,57.6,23.8,30.19,SSW,211,7.0,0.0,27,0.00,,,0.00,404,WeatherHawk,2013-04-26 15:30:00,
2013-04-26 10:35:00,59.3,24.4,30.19,SSW,196,9.0,0.0,26,0.00,,,0.00,660,WeatherHawk,2013-04-26 15:35:00,
2013-04-26 10:40:00,60.3,24.3,30.19,South,171,8.0,0.0,25,0.00,,,0.00,720,WeatherHawk,2013-04-26 15:40:00,
2013-04-26 10:46:00,61.8,24.6,30.19,SSE,168,6.0,0.0,24,0.00,,,0.00,739,WeatherHawk,2013-04-26 15:46:00,
2013-04-26 10:51:00,59.9,19.9,30.18,South,176,10.0,0.0,21,0.00,,,0.00,693,WeatherHawk,2013-04-26 15:51:00,
2013-04-26 10:57:00,60.8,21.7,30.18,South,172,8.0,0.0,22,0.00,,,0.00,704,WeatherHawk,2013-04-26 15:57:00,
2013-04-26 11:02:00,62.1,20.6,30.19,SSW,209,9.0,0.0,20,0.00,,,0.00,699,WeatherHawk,2013-04-26 16:02:00,
2013-04-26 11:08:00,61.8,21.4,30.18,SSW,193,10.0,0.0,21,0.00,,,0.00,749,WeatherHawk,2013-04-26 16:08:00,
2013-04-26 11:14:00,61.9,21.5,30.19,South,183,10.0,0.0,21,0.00,,,0.00,752,WeatherHawk,2013-04-26 16:14:00,
2013-04-26 11:19:00,62.3,20.8,30.17,SW,223,13.0,0.0,20,0.00,,,0.00,766,WeatherHawk,2013-04-26 16:19:00,
2013-04-26 11:24:00,62.4,20.8,30.19,SW,218,7.0,0.0,20,0.00,,,0.00,663,WeatherHawk,2013-04-26 16:24:00,
2013-04-26 11:30:00,62.0,21.6,30.19,SW,231,10.0,0.0,21,0.00,,,0.00,784,WeatherHawk,2013-04-26 16:30:00,
2013-04-26 11:35:00,61.3,19.9,30.18,SSE,161,10.0,0.0,20,0.00,,,0.00,781,WeatherHawk,2013-04-26 16:35:00,
2013-04-26 11:40:00,63.1,23.6,30.18,SSE,165,7.0,0.0,22,0.00,,,0.00,775,WeatherHawk,2013-04-26 16:40:00,
2013-04-26 11:46:00,61.3,19.9,30.18,SSW,193,15.0,0.0,20,0.00,,,0.00,801,WeatherHawk,2013-04-26 16:46:00,
2013-04-26 11:51:00,61.6,19.0,30.18,South,183,12.0,0.0,19,0.00,,,0.00,766,WeatherHawk,2013-04-26 16:51:00,
2013-04-26 11:57:00,63.1,21.4,30.18,South,171,12.0,0.0,20,0.00,,,0.00,814,WeatherHawk,2013-04-26 16:57:00,
2013-04-26 12:03:00,63.4,21.6,30.18,South,185,12.0,0.0,20,0.00,,,0.00,815,WeatherHawk,2013-04-26 17:03:00,
2013-04-26 12:08:00,62.7,18.6,30.18,SSW,201,9.0,0.0,18,0.00,,,0.00,814,WeatherHawk,2013-04-26 17:08:00,
2013-04-26 12:13:00,62.6,18.5,30.18,South,191,12.0,0.0,18,0.00,,,0.00,815,WeatherHawk,2013-04-26 17:13:00,
2013-04-26 12:19:00,64.6,20.2,30.17,SW,229,11.0,0.0,18,0.00,,,0.00,821,WeatherHawk,2013-04-26 17:19:00,
2013-04-26 12:25:00,63.0,20.1,30.17,South,177,14.0,0.0,19,0.00,,,0.00,821,WeatherHawk,2013-04-26 17:25:00,
2013-04-26 12:30:00,64.3,22.4,30.17,South,185,11.0,0.0,20,0.00,,,0.00,821,WeatherHawk,2013-04-26 17:30:00,
2013-04-26 12:35:00,64.0,22.1,30.18,SSW,207,11.0,0.0,20,0.00,,,0.00,820,WeatherHawk,2013-04-26 17:35:00,
2013-04-26 12:40:00,62.7,19.8,30.17,SSW,204,13.0,0.0,19,0.00,,,0.00,828,WeatherHawk,2013-04-26 17:40:00,
2013-04-26 12:45:00,63.8,22.0,30.17,South,178,8.0,0.0,20,0.00,,,0.00,829,WeatherHawk,2013-04-26 17:45:00,
2013-04-26 12:50:00,63.3,19.1,30.16,South,189,9.0,0.0,18,0.00,,,0.00,826,WeatherHawk,2013-04-26 17:50:00,
2013-04-26 12:55:00,64.9,22.9,30.17,South,185,13.0,0.0,20,0.00,,,0.00,829,WeatherHawk,2013-04-26 17:55:00,
2013-04-26 13:00:00,64.0,23.3,30.16,SSW,198,11.0,0.0,21,0.00,,,0.00,829,WeatherHawk,2013-04-26 18:00:00,
2013-04-26 13:05:00,63.7,20.7,30.16,SW,223,10.0,0.0,19,0.00,,,0.00,826,WeatherHawk,2013-04-26 18:05:00,
2013-04-26 13:10:00,65.6,25.7,30.16,SW,228,7.0,0.0,22,0.00,,,0.00,823,WeatherHawk,2013-04-26 18:10:00,
2013-04-26 13:15:00,64.0,20.9,30.17,WSW,253,12.0,0.0,19,0.00,,,0.00,825,WeatherHawk,2013-04-26 18:15:00,
2013-04-26 13:20:00,64.6,23.8,30.16,WSW,238,9.0,0.0,21,0.00,,,0.00,820,WeatherHawk,2013-04-26 18:20:00,
2013-04-26 13:25:00,64.9,24.0,30.16,SSW,206,9.0,0.0,21,0.00,,,0.00,820,WeatherHawk,2013-04-26 18:25:00,
2013-04-26 13:30:00,65.8,25.9,30.16,SSE,160,10.0,0.0,22,0.00,,,0.00,814,WeatherHawk,2013-04-26 18:30:00,
2013-04-26 13:35:00,64.9,22.9,30.15,SSW,206,11.0,0.0,20,0.00,,,0.00,810,WeatherHawk,2013-04-26 18:35:00,
2013-04-26 13:40:00,64.6,22.6,30.15,SW,229,11.0,0.0,20,0.00,,,0.00,813,WeatherHawk,2013-04-26 18:40:00,
2013-04-26 13:45:00,66.4,26.4,30.14,South,172,9.0,0.0,22,0.00,,,0.00,807,WeatherHawk,2013-04-26 18:45:00,
2013-04-26 13:50:00,66.2,25.1,30.15,SSE,161,8.0,0.0,21,0.00,,,0.00,804,WeatherHawk,2013-04-26 18:50:00,
2013-04-26 13:55:00,65.1,25.3,30.14,South,175,8.0,0.0,22,0.00,,,0.00,798,WeatherHawk,2013-04-26 18:55:00,
2013-04-26 14:00:00,64.7,21.5,30.15,South,172,15.0,0.0,19,0.00,,,0.00,795,WeatherHawk,2013-04-26 19:00:00,
2013-04-26 14:05:00,66.3,25.2,30.15,South,181,13.0,0.0,21,0.00,,,0.00,788,WeatherHawk,2013-04-26 19:05:00,
2013-04-26 14:10:00,65.1,23.1,30.14,SW,231,10.0,0.0,20,0.00,,,0.00,781,WeatherHawk,2013-04-26 19:10:00,
2013-04-26 14:15:00,64.6,21.4,30.14,SW,216,13.0,0.0,19,0.00,,,0.00,775,WeatherHawk,2013-04-26 19:15:00,
2013-04-26 14:20:00,68.5,29.2,30.14,SW,220,7.0,0.0,23,0.00,,,0.00,765,WeatherHawk,2013-04-26 19:20:00,
2013-04-26 14:25:00,66.7,24.3,30.14,SSW,192,14.0,0.0,20,0.00,,,0.00,760,WeatherHawk,2013-04-26 19:25:00,
2013-04-26 14:30:00,66.1,22.6,30.14,WSW,240,15.0,0.0,19,0.00,,,0.00,765,WeatherHawk,2013-04-26 19:30:00,
2013-04-26 14:35:00,68.1,26.7,30.13,South,177,7.0,0.0,21,0.00,,,0.00,746,WeatherHawk,2013-04-26 19:35:00,
2013-04-26 14:40:00,66.9,20.7,30.13,SW,236,12.0,0.0,17,0.00,,,0.00,810,WeatherHawk,2013-04-26 19:40:00,
2013-04-26 14:45:00,65.9,19.9,30.13,SW,216,12.0,0.0,17,0.00,,,0.00,467,WeatherHawk,2013-04-26 19:45:00,
2013-04-26 14:50:00,65.6,23.4,30.13,SSE,166,16.0,0.0,20,0.00,,,0.00,649,WeatherHawk,2013-04-26 19:50:00,
2013-04-26 14:55:00,68.2,25.6,30.13,SSW,213,11.0,0.0,20,0.00,,,0.00,723,WeatherHawk,2013-04-26 19:55:00,
2013-04-26 15:00:00,67.8,22.8,30.13,SSW,194,16.0,0.0,18,0.00,,,0.00,779,WeatherHawk,2013-04-26 20:00:00,
2013-04-26 15:05:00,68.0,26.6,30.12,SE,145,12.0,0.0,21,0.00,,,0.00,716,WeatherHawk,2013-04-26 20:05:00,
2013-04-26 15:10:00,67.3,23.7,30.12,SW,235,11.0,0.0,19,0.00,,,0.00,694,WeatherHawk,2013-04-26 20:10:00,
2013-04-26 15:15:00,67.9,22.8,30.12,South,171,14.0,0.0,18,0.00,,,0.00,682,WeatherHawk,2013-04-26 20:15:00,
2013-04-26 15:20:00,68.7,23.5,30.12,SW,222,8.0,0.0,18,0.00,,,0.00,681,WeatherHawk,2013-04-26 20:20:00,
2013-04-26 15:25:00,69.2,23.9,30.12,SSE,159,11.0,0.0,18,0.00,,,0.00,705,WeatherHawk,2013-04-26 20:25:00,
2013-04-26 15:30:00,67.1,24.7,30.11,SSW,198,7.0,0.0,20,0.00,,,0.00,327,WeatherHawk,2013-04-26 20:30:00,
2013-04-26 15:35:00,66.1,25.1,30.11,South,179,9.0,0.0,21,0.00,,,0.00,199,WeatherHawk,2013-04-26 20:35:00,
2013-04-26 15:40:00,67.5,27.3,30.12,SSW,202,6.0,0.0,22,0.00,,,0.00,616,WeatherHawk,2013-04-26 20:40:00,
2013-04-26 15:45:00,68.1,26.7,30.12,SSE,166,13.0,0.0,21,0.00,,,0.00,662,WeatherHawk,2013-04-26 20:45:00,
2013-04-26 15:50:00,69.0,26.3,30.11,WSW,246,8.0,0.0,20,0.00,,,0.00,643,WeatherHawk,2013-04-26 20:50:00,
2013-04-26 15:55:00,67.7,24.0,30.12,South,188,18.0,0.0,19,0.00,,,0.00,603,WeatherHawk,2013-04-26 20:55:00,
2013-04-26 16:00:00,68.3,25.7,30.12,SSW,203,12.0,0.0,20,0.00,,,0.00,626,WeatherHawk,2013-04-26 21:00:00,
2013-04-26 16:05:00,68.5,27.1,30.11,South,189,7.0,0.0,21,0.00,,,0.00,635,WeatherHawk,2013-04-26 21:05:00,
2013-04-26 16:10:00,67.0,23.4,30.12,South,187,16.0,0.0,19,0.00,,,0.00,585,WeatherHawk,2013-04-26 21:10:00,
2013-04-26 16:15:00,69.3,28.8,30.12,WSW,241,5.0,0.0,22,0.00,,,0.00,538,WeatherHawk,2013-04-26 21:15:00,
2013-04-26 16:20:00,67.4,24.9,30.12,SSW,200,10.0,0.0,20,0.00,,,0.00,570,WeatherHawk,2013-04-26 21:20:00,
2013-04-26 16:25:00,67.0,25.8,30.12,SSW,210,9.0,0.0,21,0.00,,,0.00,389,WeatherHawk,2013-04-26 21:25:00,
2013-04-26 16:30:00,66.8,27.8,30.11,WSW,240,7.0,0.0,23,0.00,,,0.00,328,WeatherHawk,2013-04-26 21:30:00,
2013-04-26 16:35:00,67.0,28.0,30.12,SSW,211,10.0,0.0,23,0.00,,,0.00,604,WeatherHawk,2013-04-26 21:35:00,
2013-04-26 16:40:00,67.3,24.9,30.12,South,176,13.0,0.0,20,0.00,,,0.00,565,WeatherHawk,2013-04-26 21:40:00,
2013-04-26 16:45:00,68.1,27.8,30.12,SSW,194,7.0,0.0,22,0.00,,,0.00,534,WeatherHawk,2013-04-26 21:45:00,
2013-04-26 16:50:00,67.5,27.3,30.12,SW,229,9.0,0.0,22,0.00,,,0.00,421,WeatherHawk,2013-04-26 21:50:00,
2013-04-26 16:55:00,67.2,26.0,30.12,South,176,12.0,0.0,21,0.00,,,0.00,436,WeatherHawk,2013-04-26 21:55:00,
2013-04-26 17:00:00,67.4,27.2,30.12,South,191,12.0,0.0,22,0.00,,,0.00,434,WeatherHawk,2013-04-26 22:00:00,
2013-04-26 17:05:00,67.1,25.9,30.12,South,178,10.0,0.0,21,0.00,,,0.00,408,WeatherHawk,2013-04-26 22:05:00,
2013-04-26 17:10:00,67.4,26.1,30.12,South,191,8.0,0.0,21,0.00,,,0.00,392,WeatherHawk,2013-04-26 22:10:00,
2013-04-26 17:15:00,67.0,24.6,30.12,SSW,200,11.0,0.0,20,0.00,,,0.00,375,WeatherHawk,2013-04-26 22:15:00,
2013-04-26 17:20:00,66.7,25.6,30.12,South,177,11.0,0.0,21,0.00,,,0.00,371,WeatherHawk,2013-04-26 22:20:00,
2013-04-26 17:25:00,67.8,27.5,30.12,South,179,5.0,0.0,22,0.00,,,0.00,359,WeatherHawk,2013-04-26 22:25:00,
2013-04-26 17:30:00,67.5,25.0,30.12,South,190,10.0,0.0,20,0.00,,,0.00,350,WeatherHawk,2013-04-26 22:30:00,
2013-04-26 17:35:00,66.4,26.4,30.13,South,184,15.0,0.0,22,0.00,,,0.00,329,WeatherHawk,2013-04-26 22:35:00,
2013-04-26 17:40:00,66.7,25.5,30.12,WSW,248,11.0,0.0,21,0.00,,,0.00,322,WeatherHawk,2013-04-26 22:40:00,
2013-04-26 17:45:00,65.9,27.1,30.12,WSW,242,8.0,0.0,23,0.00,,,0.00,312,WeatherHawk,2013-04-26 22:45:00,
2013-04-26 17:50:00,66.4,25.3,30.12,SSE,150,10.0,0.0,21,0.00,,,0.00,285,WeatherHawk,2013-04-26 22:50:00,
2013-04-26 17:56:00,65.4,25.6,30.12,SSE,168,10.0,0.0,22,0.00,,,0.00,254,WeatherHawk,2013-04-26 22:56:00,
2013-04-26 18:01:00,65.3,25.5,30.12,SSW,211,9.0,0.0,22,0.00,,,0.00,254,WeatherHawk,2013-04-26 23:01:00,
2013-04-26 18:06:00,65.4,25.5,30.12,South,181,12.0,0.0,22,0.00,,,0.00,221,WeatherHawk,2013-04-26 23:06:00,
2013-04-26 18:11:00,65.1,25.3,30.12,SSW,206,10.0,0.0,22,0.00,,,0.00,120,WeatherHawk,2013-04-26 23:11:00,
2013-04-26 18:16:00,64.3,26.8,30.13,SW,219,8.0,0.0,24,0.00,,,0.00,187,WeatherHawk,2013-04-26 23:16:00,
2013-04-26 18:22:00,64.5,26.9,30.12,SSW,199,7.0,0.0,24,0.00,,,0.00,172,WeatherHawk,2013-04-26 23:22:00,
2013-04-26 18:27:00,63.6,27.2,30.13,SSW,192,6.0,0.0,25,0.00,,,0.00,68,WeatherHawk,2013-04-26 23:27:00,
2013-04-26 18:32:00,64.2,26.6,30.13,South,172,13.0,0.0,24,0.00,,,0.00,142,WeatherHawk,2013-04-26 23:32:00,
2013-04-26 18:38:00,64.1,26.6,30.13,SW,233,8.0,0.0,24,0.00,,,0.00,122,WeatherHawk,2013-04-26 23:38:00,
2013-04-26 18:43:00,63.8,26.3,30.12,SW,219,13.0,0.0,24,0.00,,,0.00,112,WeatherHawk,2013-04-26 23:43:00,
2013-04-26 18:49:00,63.9,26.4,30.13,SW,219,11.0,0.0,24,0.00,,,0.00,98,WeatherHawk,2013-04-26 23:49:00,
2013-04-26 18:54:00,63.5,27.1,30.13,South,172,12.0,0.0,25,0.00,,,0.00,84,WeatherHawk,2013-04-26 23:54:00,
2013-04-26 19:05:00,62.6,28.1,30.14,SSW,198,11.0,0.0,27,0.00,,,0.00,60,WeatherHawk,2013-04-27 00:05:00,
2013-04-26 19:10:00,61.8,28.3,30.15,WSW,240,8.0,0.0,28,0.00,,,0.00,49,WeatherHawk,2013-04-27 00:10:00,
2013-04-26 19:16:00,62.2,28.7,30.14,SSW,207,8.0,0.0,28,0.00,,,0.00,38,WeatherHawk,2013-04-27 00:16:00,
2013-04-26 19:21:00,62.1,28.6,30.14,SSW,195,14.0,0.0,28,0.00,,,0.00,27,WeatherHawk,2013-04-27 00:21:00,
2013-04-26 19:27:00,61.3,28.8,30.14,SW,228,5.0,0.0,29,0.00,,,0.00,21,WeatherHawk,2013-04-27 00:27:00,
2013-04-26 19:32:00,60.3,28.8,30.14,SSW,212,3.0,0.0,30,0.00,,,0.00,17,WeatherHawk,2013-04-27 00:32:00,
2013-04-26 19:38:00,60.3,29.5,30.14,SSW,210,8.0,0.0,31,0.00,,,0.00,13,WeatherHawk,2013-04-27 00:38:00,
2013-04-26 19:43:00,60.9,30.0,30.15,South,188,8.0,0.0,31,0.00,,,0.00,8,WeatherHawk,2013-04-27 00:43:00,
2013-04-26 19:48:00,60.8,30.7,30.14,SSE,161,11.0,0.0,32,0.00,,,0.00,6,WeatherHawk,2013-04-27 00:48:00,
2013-04-26 19:53:00,60.1,30.1,30.15,SSW,210,5.0,0.0,32,0.00,,,0.00,2,WeatherHawk,2013-04-27 00:53:00,
2013-04-26 19:59:00,59.6,30.5,30.15,South,177,6.0,0.0,33,0.00,,,0.00,1,WeatherHawk,2013-04-27 00:59:00,
2013-04-26 20:05:00,59.6,31.2,30.16,SSW,202,6.0,0.0,34,0.00,,,0.00,0,WeatherHawk,2013-04-27 01:05:00,
2013-04-26 20:10:00,59.0,31.4,30.15,SSW,207,5.0,0.0,35,0.00,,,0.00,0,WeatherHawk,2013-04-27 01:10:00,
2013-04-26 20:15:00,59.1,31.5,30.16,SW,235,6.0,0.0,35,0.00,,,0.00,0,WeatherHawk,2013-04-27 01:15:00,
2013-04-26 20:20:00,58.7,32.5,30.16,SSW,210,4.0,0.0,37,0.00,,,0.00,0,WeatherHawk,2013-04-27 01:20:00,
2013-04-26 20:25:00,59.1,33.5,30.16,South,175,7.0,0.0,38,0.00,,,0.00,1,WeatherHawk,2013-04-27 01:25:00,
2013-04-26 20:30:00,58.3,32.1,30.16,SSE,164,4.0,0.0,37,0.00,,,0.00,1,WeatherHawk,2013-04-27 01:30:00,
2013-04-26 20:35:00,58.3,32.8,30.16,SSE,162,7.0,0.0,38,0.00,,,0.00,0,WeatherHawk,2013-04-27 01:35:00,
2013-04-26 20:40:00,58.6,33.1,30.17,SSW,193,6.0,0.0,38,0.00,,,0.00,0,WeatherHawk,2013-04-27 01:40:00,
2013-04-26 20:45:00,57.8,33.7,30.17,South,179,6.0,0.0,40,0.00,,,0.00,0,WeatherHawk,2013-04-27 01:45:00,
2013-04-26 20:50:00,58.3,34.7,30.18,South,175,7.0,0.0,41,0.00,,,0.00,0,WeatherHawk,2013-04-27 01:50:00,
2013-04-26 20:55:00,58.3,35.3,30.18,South,184,9.0,0.0,42,0.00,,,0.00,0,WeatherHawk,2013-04-27 01:55:00,
2013-04-26 21:00:00,57.6,34.0,30.18,SSW,201,8.0,0.0,41,0.00,,,0.00,0,WeatherHawk,2013-04-27 02:00:00,
2013-04-26 21:05:00,58.1,33.9,30.17,SSW,198,8.0,0.0,40,0.00,,,0.00,0,WeatherHawk,2013-04-27 02:05:00,
2013-04-26 21:10:00,57.9,33.8,30.19,SSE,165,9.0,0.0,40,0.00,,,0.00,0,WeatherHawk,2013-04-27 02:10:00,
2013-04-26 21:15:00,58.1,33.3,30.19,South,191,9.0,0.0,39,0.00,,,0.00,0,WeatherHawk,2013-04-27 02:15:00,
2013-04-26 21:20:00,56.5,32.5,30.19,SW,233,8.0,0.0,40,0.00,,,0.00,0,WeatherHawk,2013-04-27 02:20:00,
2013-04-26 21:26:00,57.0,32.9,30.18,South,177,7.0,0.0,40,0.00,,,0.00,0,WeatherHawk,2013-04-27 02:26:00,
2013-04-26 21:31:00,57.9,34.3,30.20,South,184,11.0,0.0,41,0.00,,,0.00,0,WeatherHawk,2013-04-27 02:31:00,
2013-04-26 21:37:00,56.9,33.5,30.19,South,187,8.0,0.0,41,0.00,,,0.00,0,WeatherHawk,2013-04-27 02:37:00,
2013-04-26 21:43:00,57.5,34.0,30.19,South,169,7.0,0.0,41,0.00,,,0.00,0,WeatherHawk,2013-04-27 02:43:00,
2013-04-26 21:48:00,56.3,33.5,30.19,SSW,196,6.0,0.0,42,0.00,,,0.00,0,WeatherHawk,2013-04-27 02:48:00,
2013-04-26 21:54:00,56.5,33.1,30.19,SW,231,4.0,0.0,41,0.00,,,0.00,0,WeatherHawk,2013-04-27 02:54:00,
2013-04-26 21:59:00,56.9,34.1,30.19,South,191,6.0,0.0,42,0.00,,,0.00,0,WeatherHawk,2013-04-27 02:59:00,
2013-04-26 22:05:00,57.0,34.1,30.19,SSW,195,7.0,0.0,42,0.00,,,0.00,0,WeatherHawk,2013-04-27 03:05:00,
2013-04-26 22:10:00,57.1,34.2,30.19,South,184,7.0,0.0,42,0.00,,,0.00,0,WeatherHawk,2013-04-27 03:10:00,
2013-04-26 22:15:00,55.7,34.1,30.20,SSW,195,6.0,0.0,44,0.00,,,0.00,0,WeatherHawk,2013-04-27 03:15:00,
2013-04-26 22:20:00,57.1,35.4,30.20,South,179,7.0,-999.0,44,0.00,,,0.00,0,WeatherHawk,2013-04-27 03:20:00,
2013-04-26 22:25:00,55.1,34.7,30.20,SSE,153,7.0,0.0,46,0.00,,,0.00,0,WeatherHawk,2013-04-27 03:25:00,
2013-04-26 22:30:00,55.3,34.8,30.19,South,183,5.0,0.0,46,0.00,,,0.00,0,WeatherHawk,2013-04-27 03:30:00,
2013-04-26 22:35:00,56.3,35.8,30.20,South,190,8.0,0.0,46,0.00,,,0.00,0,WeatherHawk,2013-04-27 03:35:00,
2013-04-26 22:40:00,56.2,35.7,30.19,South,188,11.0,0.0,46,0.00,,,0.00,0,WeatherHawk,2013-04-27 03:40:00,
2013-04-26 22:46:00,56.2,35.7,30.18,South,175,10.0,0.0,46,0.00,,,0.00,0,WeatherHawk,2013-04-27 03:46:00,
2013-04-26 22:51:00,55.1,35.3,30.19,SSW,196,5.0,0.0,47,0.00,,,0.00,0,WeatherHawk,2013-04-27 03:51:00,
2013-04-26 22:56:00,55.1,35.3,30.19,SSE,164,7.0,0.0,47,0.00,,,0.00,0,WeatherHawk,2013-04-27 03:56:00,
2013-04-26 23:02:00,55.1,35.3,30.19,SE,143,6.0,0.0,47,0.00,,,0.00,0,WeatherHawk,2013-04-27 04:02:00,
2013-04-26 23:03:00,56.0,36.1,30.18,South,171,11.0,0.0,47,0.00,,,0.00,0,WeatherHawk,2013-04-27 04:03:00,
2013-04-26 23:04:00,55.3,35.4,30.19,South,180,5.0,0.0,47,0.00,,,0.00,0,WeatherHawk,2013-04-27 04:04:00,
2013-04-26 23:10:00,55.2,35.8,30.20,SW,214,4.0,0.0,48,0.00,,,0.00,0,WeatherHawk,2013-04-27 04:10:00,
2013-04-26 23:15:00,55.0,35.7,30.19,West,266,6.0,0.0,48,0.00,,,0.00,0,WeatherHawk,2013-04-27 04:15:00,
2013-04-26 23:16:00,54.9,35.6,30.19,South,186,6.0,0.0,48,0.00,,,0.00,0,WeatherHawk,2013-04-27 04:16:00,
2013-04-26 23:21:00,55.1,35.8,30.19,WSW,238,8.0,0.0,48,0.00,,,0.00,0,WeatherHawk,2013-04-27 04:21:00,
2013-04-26 23:26:00,55.0,36.2,30.19,SW,214,10.0,0.0,49,0.00,,,0.00,0,WeatherHawk,2013-04-27 04:26:00,
2013-04-26 23:31:00,54.3,36.1,30.19,SW,217,5.0,0.0,50,0.00,,,0.00,0,WeatherHawk,2013-04-27 04:31:00,
2013-04-26 23:37:00,55.0,36.7,30.19,South,175,11.0,0.0,50,0.00,,,0.00,0,WeatherHawk,2013-04-27 04:37:00,
2013-04-26 23:43:00,54.0,35.8,30.20,SSW,204,7.0,0.0,50,0.00,,,0.00,0,WeatherHawk,2013-04-27 04:43:00,
2013-04-26 23:48:00,54.3,36.6,30.19,SSW,213,7.0,0.0,51,0.00,,,0.00,0,WeatherHawk,2013-04-27 04:48:00,
2013-04-26 23:53:00,54.0,36.8,30.19,SW,215,6.0,0.0,52,0.00,,,0.00,1,WeatherHawk,2013-04-27 04:53:00,
2013-04-26 23:59:00,54.2,37.4,30.20,SSW,201,8.0,0.0,53,0.00,,,0.00,0,WeatherHawk,2013-04-27 04:59:00,